Time;durP1;ratioP1;P1;durP2;ratioP2;P2;SDS_P1;SDS_P2;PMS_P1;PMS_P2;Temp;Humidity;BMP_temperature;BMP_pressure;BME280_temperature;BME280_humidity;BME280_pressure;Samples;Min_cycle;Max_cycle;Signal;HPM_P1;HPM_P2
2022/04/26 03:36:26;;;;;;;17.48;10.02;;;;;;;8.32;61.46;98900.47;5125840;27;20104;-70
2022/04/26 03:39:00;;;;;;;12.68;9.82;;;;;;;8.26;62.16;98908.72;5125990;28;20185;-70
2022/04/26 03:41:32;;;;;;;13.38;9.95;;;;;;;7.99;61.91;98866.16;5125977;28;20085;-70
2022/04/26 03:44:04;;;;;;;15.73;11.88;;;;;;;8.17;62.51;98913.63;5126196;28;20337;-70
2022/04/26 03:46:36;;;;;;;12.63;9.52;;;;;;;8.22;62.22;98923.03;5126117;28;20040;-71
2022/04/26 03:49:09;;;;;;;13.88;10.30;;;;;;;8.24;62.14;98917.66;5125928;28;20040;-70
2022/04/26 03:51:41;;;;;;;13.98;10.52;;;;;;;8.23;62.05;98924.72;5125714;28;20047;-70
2022/04/26 03:54:15;;;;;;;14.43;10.73;;;;;;;8.17;62.91;98922.41;5125885;28;20089;-70
2022/04/26 03:56:47;;;;;;;11.97;10.30;;;;;;;8.22;62.39;98923.03;5125912;28;20043;-70
2022/04/26 03:59:20;;;;;;;14.93;11.23;;;;;;;8.10;62.46;98917.53;5125733;28;20081;-71
2022/04/26 04:01:52;;;;;;;45.35;30.95;;;;;;;8.13;62.88;98931.41;5125224;28;20047;-70
2022/04/26 04:04:24;;;;;;;34.40;25.25;;;;;;;8.25;62.46;98927.28;5124967;28;20084;-70
2022/04/26 04:06:56;;;;;;;27.67;20.42;;;;;;;8.29;62.09;98931.47;5126034;28;20040;-70
2022/04/26 04:09:30;;;;;;;16.08;12.88;;;;;;;8.25;62.07;98943.13;5125989;28;20043;-70
2022/04/26 04:12:02;;;;;;;13.48;11.48;;;;;;;8.25;62.02;98937.84;5125669;28;20085;-71
2022/04/26 04:14:35;;;;;;;17.00;10.45;;;;;;;8.21;61.89;98936.31;5124874;28;20088;-70
2022/04/26 04:17:07;;;;;;;13.48;10.77;;;;;;;8.08;62.49;98937.88;5125043;28;20084;-70
2022/04/26 04:19:39;;;;;;;14.35;10.27;;;;;;;8.05;62.45;98938.03;5125624;28;20341;-70
2022/04/26 04:22:14;;;;;;;13.50;10.20;;;;;;;8.12;62.31;98942.06;5125236;28;20044;-70
2022/04/26 04:24:43;;;;;;;14.82;9.93;;;;;;;8.14;62.55;98938.41;5125537;28;20248;-70
2022/04/26 04:27:11;;;;;;;15.23;10.15;;;;;;;6.89;62.30;98752.25;5125805;28;20279;-70
2022/04/26 04:29:41;;;;;;;17.13;11.55;;;;;;;7.99;61.81;98881.13;5125583;28;20212;-70
2022/04/26 04:32:12;;;;;;;15.90;12.00;;;;;;;8.36;61.55;98927.56;5125463;28;20044;-70
2022/04/26 04:34:42;;;;;;;15.32;10.80;;;;;;;8.35;61.64;98931.16;5125452;28;20188;-70
2022/04/26 04:37:12;;;;;;;14.43;11.40;;;;;;;8.37;61.63;98939.84;5128299;28;20193;-70
2022/04/26 04:39:43;;;;;;;13.15;10.57;;;;;;;8.35;61.61;98947.84;5129288;27;20031;-70
2022/04/26 04:42:14;;;;;;;15.43;11.30;;;;;;;7.79;61.58;98862.84;5129328;28;20253;-70
2022/04/26 04:44:42;;;;;;;10.10;8.93;;;;;;;8.25;61.79;98959.81;5128447;28;20085;-70
2022/04/26 04:47:12;;;;;;;13.02;10.15;;;;;;;8.24;61.92;98951.97;5128633;28;20040;-71
2022/04/26 04:49:42;;;;;;;15.80;11.27;;;;;;;8.10;62.06;98922.81;5128288;28;20032;-71
2022/04/26 04:52:13;;;;;;;13.18;10.35;;;;;;;8.37;62.01;98960.97;5129256;28;20036;-70
2022/04/26 04:54:44;;;;;;;13.40;9.95;;;;;;;8.42;61.62;98956.31;5129236;28;20088;-71
2022/04/26 04:57:13;;;;;;;12.23;9.75;;;;;;;8.51;61.21;98954.97;5128319;28;20271;-70
2022/04/26 04:59:43;;;;;;;13.55;10.23;;;;;;;8.58;61.08;98962.47;5128961;28;20301;-70
2022/04/26 05:02:13;;;;;;;14.32;10.57;;;;;;;8.64;61.04;98956.88;5129205;28;20061;-70
2022/04/26 05:04:43;;;;;;;16.75;10.93;;;;;;;8.70;60.88;98960.97;5128821;28;20299;-70
2022/04/26 05:07:13;;;;;;;13.10;9.60;;;;;;;8.79;60.66;98967.53;5128875;28;20187;-70
2022/04/26 05:09:45;;;;;;;12.63;9.80;;;;;;;8.86;60.59;98968.91;5128698;28;20322;-70
2022/04/26 05:12:14;;;;;;;12.57;9.45;;;;;;;8.93;60.27;98967.66;5128007;28;20306;-70
2022/04/26 05:14:44;;;;;;;11.82;9.90;;;;;;;8.99;60.29;98968.16;5128839;28;20284;-70
2022/04/26 05:17:14;;;;;;;13.98;9.70;;;;;;;8.83;60.03;98913.59;5128526;28;20228;-71
2022/04/26 05:19:44;;;;;;;11.60;9.85;;;;;;;9.15;60.04;98970.81;5128979;28;20221;-71
2022/04/26 05:22:15;;;;;;;12.23;10.15;;;;;;;9.15;60.07;98973.47;5127739;28;20065;-70
2022/04/26 05:24:54;;;;;;;12.75;10.10;;;;;;;9.20;60.21;98968.81;5128381;28;20093;-71
2022/04/26 05:27:29;;;;;;;12.23;10.13;;;;;;;9.25;59.94;98974.69;5128298;28;20040;-70
2022/04/26 05:30:01;;;;;;;13.23;10.63;;;;;;;9.27;60.03;98977.25;5128406;28;20333;-70
2022/04/26 05:32:33;;;;;;;17.60;12.18;;;;;;;9.23;60.28;98976.56;5128110;28;20096;-71
2022/04/26 05:35:07;;;;;;;12.43;9.80;;;;;;;9.26;60.16;98983.47;5128202;28;20089;-71
2022/04/26 05:37:39;;;;;;;18.33;10.50;;;;;;;9.37;60.05;98982.88;5127169;28;20392;-71
2022/04/26 05:40:13;;;;;;;12.27;9.40;;;;;;;9.43;59.86;98982.56;5127989;27;20039;-70
2022/04/26 05:42:45;;;;;;;11.48;8.63;;;;;;;9.48;59.78;98976.06;5128095;28;20040;-71
2022/04/26 05:45:18;;;;;;;14.00;10.75;;;;;;;9.53;60.04;98984.59;5127396;28;20048;-71
2022/04/26 05:47:50;;;;;;;13.43;9.68;;;;;;;9.27;59.68;98927.88;5127500;28;20039;-70
2022/04/26 05:50:22;;;;;;;12.85;9.55;;;;;;;7.84;59.55;98699.91;5127764;28;20085;-70
2022/04/26 05:52:54;;;;;;;12.52;9.57;;;;;;;9.61;59.56;98982.38;5127929;28;20048;-70
2022/04/26 05:55:28;;;;;;;12.32;8.93;;;;;;;9.65;59.55;98979.56;5127960;28;20040;-70
2022/04/26 05:58:01;;;;;;;12.18;10.38;;;;;;;9.71;59.38;98987.16;5127763;28;20234;-70
2022/04/26 06:00:34;;;;;;;13.48;9.73;;;;;;;9.71;59.44;98982.69;5126784;28;20051;-70
2022/04/26 06:03:06;;;;;;;13.25;10.07;;;;;;;9.77;59.17;98977.06;5127036;28;20089;-70
2022/04/26 06:05:38;;;;;;;13.02;9.68;;;;;;;9.74;59.29;98982.53;5127567;28;20089;-71
2022/04/26 06:08:10;;;;;;;15.82;10.20;;;;;;;9.46;59.15;98930.34;5127835;28;20081;-70
2022/04/26 06:10:44;;;;;;;12.40;10.23;;;;;;;9.80;59.51;98983.97;5127413;28;20209;-70
2022/04/26 06:13:16;;;;;;;12.27;9.95;;;;;;;9.79;59.16;98990.19;5127804;28;20085;-70
2022/04/26 06:15:48;;;;;;;19.73;13.73;;;;;;;9.83;59.49;98995.22;5127721;28;20035;-70
2022/04/26 06:18:20;;;;;;;18.52;15.52;;;;;;;9.89;59.55;98999.31;5127336;28;20089;-70
2022/04/26 06:20:53;;;;;;;18.33;13.82;;;;;;;9.95;59.40;98994.53;5127247;28;20176;-70
2022/04/26 06:23:25;;;;;;;15.60;12.75;;;;;;;10.01;59.10;98990.66;5127462;28;20039;-70
2022/04/26 06:25:59;;;;;;;18.85;14.10;;;;;;;9.80;59.22;98954.84;5127163;27;20185;-70
2022/04/26 06:28:31;;;;;;;17.83;13.60;;;;;;;10.10;59.12;98991.91;5127264;28;20047;-71
2022/04/26 06:31:03;;;;;;;15.15;11.57;;;;;;;10.10;59.00;98997.22;5127238;28;20089;-70
2022/04/26 06:33:35;;;;;;;13.65;10.93;;;;;;;10.14;58.91;98999.59;5127294;28;20039;-70
2022/04/26 06:36:08;;;;;;;17.95;11.60;;;;;;;10.16;58.79;98995.06;5126190;28;20096;-70
2022/04/26 06:38:40;;;;;;;14.27;10.70;;;;;;;10.13;58.90;98991.72;5126897;28;20089;-71
2022/04/26 06:41:15;;;;;;;14.32;11.25;;;;;;;10.15;59.13;98997.78;5126933;28;20047;-70
2022/04/26 06:43:47;;;;;;;14.38;11.50;;;;;;;10.19;59.06;98992.22;5126342;28;20095;-71
2022/04/26 06:46:19;;;;;;;12.35;10.45;;;;;;;9.95;58.88;98949.50;5126290;28;20234;-70
2022/04/26 06:48:57;;;;;;;14.27;10.07;;;;;;;10.32;58.85;98996.78;5126985;28;20043;-71
2022/04/26 06:51:30;;;;;;;13.40;10.48;;;;;;;10.27;58.79;99002.34;5126057;28;20104;-71
2022/04/26 06:54:03;;;;;;;12.30;9.73;;;;;;;10.26;58.80;99000.66;5126682;28;20043;-71
2022/04/26 06:56:36;;;;;;;15.70;10.82;;;;;;;9.74;58.87;98908.44;5126529;28;20043;-71
2022/04/26 06:59:09;;;;;;;13.57;9.97;;;;;;;9.71;58.83;98911.25;5126136;27;20039;-71
2022/04/26 07:01:41;;;;;;;12.57;9.52;;;;;;;9.99;58.76;98965.22;5126775;28;20378;-71
2022/04/26 07:04:13;;;;;;;13.25;9.82;;;;;;;9.98;59.39;98959.06;5126505;28;20341;-71
2022/04/26 07:06:45;;;;;;;14.25;11.30;;;;;;;10.35;59.14;99010.69;5126163;28;20057;-71
2022/04/26 07:09:18;;;;;;;18.05;12.05;;;;;;;10.36;58.94;99000.97;5126300;28;20100;-71
2022/04/26 07:11:52;;;;;;;15.77;11.40;;;;;;;10.36;59.02;98999.16;5126475;28;20048;-71
2022/04/26 07:14:24;;;;;;;13.20;10.35;;;;;;;10.28;59.57;99012.00;5126455;28;20044;-71
2022/04/26 07:16:57;;;;;;;15.10;9.23;;;;;;;9.21;59.43;98851.53;5126495;28;20039;-70
2022/04/26 07:19:30;;;;;;;16.08;11.18;;;;;;;9.53;59.28;98899.09;5125291;28;20084;-70
2022/04/26 07:22:03;;;;;;;12.88;9.73;;;;;;;10.19;59.42;99013.41;5126246;28;20043;-71
2022/04/26 07:24:35;;;;;;;14.63;10.90;;;;;;;10.19;59.28;99025.78;5126302;28;20279;-71
2022/04/26 07:27:09;;;;;;;16.00;11.95;;;;;;;10.23;59.42;99012.28;5126340;28;20043;-70
2022/04/26 07:29:43;;;;;;;14.20;11.07;;;;;;;8.33;59.14;98695.41;5126269;28;20047;-71
2022/04/26 07:32:16;;;;;;;13.38;11.40;;;;;;;10.30;59.23;99022.50;5126188;28;20300;-71
2022/04/26 07:34:45;;;;;;;14.02;9.88;;;;;;;10.32;59.21;99024.13;5125983;28;20292;-71
2022/04/26 07:37:19;;;;;;;12.15;9.75;;;;;;;10.30;59.44;99027.81;5125631;28;20126;-71
2022/04/26 07:39:46;;;;;;;12.73;9.73;;;;;;;10.33;59.57;99027.63;5125585;28;20326;-71
2022/04/26 07:42:17;;;;;;;13.65;10.43;;;;;;;10.35;59.54;99029.25;5125901;28;20044;-71
2022/04/26 07:44:46;;;;;;;12.80;10.57;;;;;;;10.40;59.48;99024.53;5125863;28;20063;-71
2022/04/26 07:47:16;;;;;;;16.88;11.18;;;;;;;10.38;59.55;99031.72;5125794;28;20307;-71
2022/04/26 07:49:47;;;;;;;13.52;10.60;;;;;;;10.40;59.52;99023.69;5125734;28;20207;-71
2022/04/26 07:52:16;;;;;;;18.90;11.32;;;;;;;10.45;59.36;99030.41;5125625;28;20256;-70
2022/04/26 07:54:47;;;;;;;14.93;11.30;;;;;;;10.25;59.64;98983.91;5125688;28;20254;-71
2022/04/26 07:57:18;;;;;;;13.52;10.30;;;;;;;9.71;59.45;98907.75;5125695;28;20102;-71
2022/04/26 07:59:47;;;;;;;16.80;11.00;;;;;;;10.54;59.22;99031.66;5126036;28;20084;-71
2022/04/26 08:02:17;;;;;;;19.08;11.52;;;;;;;10.53;59.34;99029.94;5125845;28;20043;-71
2022/04/26 08:04:47;;;;;;;12.70;9.88;;;;;;;10.48;59.27;99032.88;5125629;28;20099;-70
2022/04/26 08:07:17;;;;;;;12.93;9.65;;;;;;;10.22;59.43;98992.03;5125621;28;20039;-71
2022/04/26 08:09:48;;;;;;;12.57;8.93;;;;;;;10.25;59.21;98991.00;5125876;27;20044;-71
2022/04/26 08:12:19;;;;;;;18.05;13.35;;;;;;;10.56;59.54;99035.91;5129906;28;20070;-71
2022/04/26 08:14:48;;;;;;;13.48;10.90;;;;;;;10.57;59.46;99042.06;5130000;28;20097;-71
2022/04/26 08:17:18;;;;;;;15.95;11.35;;;;;;;10.54;59.57;99053.69;5129615;28;20098;-70
2022/04/26 08:19:48;;;;;;;16.25;11.18;;;;;;;10.47;59.54;99056.81;5129640;28;20101;-71
2022/04/26 08:22:18;;;;;;;17.23;12.63;;;;;;;10.21;59.41;99002.72;5129826;28;20188;-71
2022/04/26 08:27:40;;;;;;;15.75;12.60;;;;;;;10.50;59.77;99060.13;5129466;27;20089;-71
2022/04/26 08:30:12;;;;;;;15.30;10.55;;;;;;;10.55;59.58;99060.69;5129422;27;20231;-71
2022/04/26 08:32:47;;;;;;;15.70;10.98;;;;;;;10.58;59.66;99063.16;5128747;28;20044;-71
2022/04/26 08:35:21;;;;;;;16.23;11.88;;;;;;;10.62;59.42;99055.88;5129406;28;20047;-71
2022/04/26 08:37:54;;;;;;;14.18;11.10;;;;;;;10.65;59.23;99054.84;5128311;28;20052;-71
2022/04/26 08:40:26;;;;;;;12.88;11.15;;;;;;;10.71;59.17;99063.28;5128738;28;20092;-71
2022/04/26 08:43:02;;;;;;;14.98;11.20;;;;;;;10.76;59.11;99060.34;5129454;28;20047;-71
2022/04/26 08:45:38;;;;;;;16.73;11.93;;;;;;;10.27;59.03;98978.53;5128979;28;20040;-71
2022/04/26 08:51:02;;;;;;;15.00;11.88;;;;;;;10.80;59.29;99062.75;5129099;28;20061;-71
2022/04/26 08:53:37;;;;;;;15.48;11.27;;;;;;;10.80;59.05;99054.81;5128951;28;20093;-71
2022/04/26 08:56:10;;;;;;;17.55;12.48;;;;;;;10.79;59.06;99062.84;5128971;28;20065;-70
2022/04/26 08:58:43;;;;;;;19.98;12.40;;;;;;;10.83;59.18;99067.88;5128989;28;20080;-71
2022/04/26 09:01:18;;;;;;;18.90;13.77;;;;;;;10.81;59.18;99096.28;5129172;28;20080;-71
2022/04/26 09:03:55;;;;;;;14.50;11.65;;;;;;;10.81;59.26;99064.47;5129213;28;20092;-71
2022/04/26 09:06:40;;;;;;;14.57;12.05;;;;;;;10.62;59.44;99037.34;5129043;28;20131;-71
2022/04/26 09:09:13;;;;;;;14.77;12.25;;;;;;;10.47;59.37;99020.56;5128711;28;20039;-71
2022/04/26 09:11:46;;;;;;;16.25;12.75;;;;;;;9.51;59.44;98936.22;5127803;28;20043;-71
2022/04/26 09:14:34;;;;;;;17.92;11.45;;;;;;;10.61;59.75;99064.78;5127615;28;20062;-71
2022/04/26 09:17:08;;;;;;;15.57;11.38;;;;;;;10.63;59.45;99056.75;5129085;28;20039;-71
2022/04/26 09:19:46;;;;;;;18.92;11.52;;;;;;;10.66;59.41;99064.50;5128973;28;20227;-71
2022/04/26 09:22:20;;;;;;;14.85;10.90;;;;;;;10.66;59.68;99068.00;5127940;28;20053;-71
2022/04/26 09:24:59;;;;;;;15.82;11.57;;;;;;;10.69;59.74;99072.28;5127850;28;20055;-71
2022/04/26 09:27:36;;;;;;;16.27;12.63;;;;;;;10.62;59.43;99079.75;5128044;28;20040;-71
2022/04/26 09:30:10;;;;;;;13.57;11.52;;;;;;;10.66;59.52;99067.16;5128362;28;20039;-71
2022/04/26 09:32:48;;;;;;;17.02;12.48;;;;;;;10.66;59.49;99067.16;5128097;28;20084;-71
2022/04/26 09:35:21;;;;;;;16.50;11.45;;;;;;;10.43;59.32;99027.00;5128074;28;20039;-71
2022/04/26 09:37:54;;;;;;;15.75;11.43;;;;;;;10.71;59.07;99068.59;5127258;28;20096;-71
2022/04/26 09:40:31;;;;;;;14.95;11.98;;;;;;;10.77;59.20;99062.06;5128115;28;20039;-71
2022/04/26 09:43:14;;;;;;;26.58;12.82;;;;;;;10.79;59.19;99070.81;5127815;28;20051;-71
2022/04/26 09:45:56;;;;;;;18.60;12.40;;;;;;;9.72;59.12;98875.91;5127866;28;20039;-71
2022/04/26 09:48:29;;;;;;;15.93;11.93;;;;;;;10.65;58.87;99025.69;5127849;28;20035;-71
2022/04/26 09:51:02;;;;;;;17.70;12.73;;;;;;;9.95;58.84;98901.00;5127702;28;20039;-71
2022/04/26 09:53:35;;;;;;;15.65;12.40;;;;;;;10.74;58.74;99033.09;5126921;28;20043;-71
2022/04/26 09:56:07;;;;;;;14.07;10.70;;;;;;;10.76;58.62;99020.59;5126975;28;20123;-71
2022/04/26 09:58:42;;;;;;;13.70;11.20;;;;;;;11.00;58.69;99066.00;5127533;28;20047;-71
2022/04/26 10:01:18;;;;;;;14.85;10.50;;;;;;;10.97;58.60;99064.38;5127683;28;20036;-70
2022/04/26 10:03:53;;;;;;;15.43;9.93;;;;;;;9.56;58.57;98820.41;5128038;28;20044;-71
2022/04/26 10:06:27;;;;;;;13.65;11.52;;;;;;;11.02;58.51;99057.00;5126587;28;20207;-71
2022/04/26 10:08:59;;;;;;;16.70;12.90;;;;;;;11.01;58.60;99060.59;5127447;28;20039;-72
2022/04/26 10:11:34;;;;;;;14.65;11.05;;;;;;;11.00;58.71;99064.19;5127335;28;20035;-72
2022/04/26 10:14:08;;;;;;;16.50;11.38;;;;;;;5.69;58.21;98176.97;5109544;28;20050;-71
2022/04/26 10:16:45;;;;;;;15.95;12.27;;;;;;;9.35;58.81;98779.31;5126865;28;20102;-71
2022/04/26 10:19:17;;;;;;;17.83;13.05;;;;;;;10.80;58.62;99012.41;5127245;28;20103;-71
2022/04/26 10:21:50;;;;;;;15.00;11.13;;;;;;;11.08;58.54;99048.66;5127036;28;20314;-71
2022/04/26 10:24:23;;;;;;;12.85;9.93;;;;;;;11.15;58.43;99052.63;5110161;28;20308;-71
2022/04/26 10:27:19;;;;;;;14.90;11.88;;;;;;;11.07;57.55;99046.09;5126857;28;20081;-70
2022/04/26 10:29:52;;;;;;;12.85;10.05;;;;;;;10.58;58.03;98983.66;5126358;28;20047;-71
2022/04/26 10:32:38;;;;;;;15.82;10.48;;;;;;;11.14;57.41;99052.75;5127027;28;20081;-71
2022/04/26 10:35:38;;;;;;;16.23;10.40;;;;;;;10.88;57.19;99015.44;5126101;28;20040;-71
2022/04/26 10:38:12;;;;;;;14.25;10.68;;;;;;;10.84;57.42;99018.38;5092633;28;20104;-71
2022/04/26 10:41:07;;;;;;;12.88;10.73;;;;;;;11.07;56.35;99057.56;5126926;28;20085;-70
2022/04/26 10:43:42;;;;;;;13.38;10.32;;;;;;;10.82;57.15;99005.19;5126256;28;20165;-70
2022/04/26 10:46:15;;;;;;;15.07;9.85;;;;;;;10.81;56.67;98997.34;5125557;28;20040;-71
2022/04/26 10:48:49;;;;;;;13.15;9.55;;;;;;;11.08;56.68;99048.66;5126661;28;20039;-72
2022/04/26 10:51:35;;;;;;;13.07;10.88;;;;;;;11.16;56.71;99072.06;5126289;28;20047;-71
2022/04/26 10:54:08;;;;;;;15.07;10.95;;;;;;;11.16;57.72;99050.84;5125661;28;20047;-71
2022/04/26 10:56:40;;;;;;;15.10;11.45;;;;;;;10.98;58.16;99001.59;5126650;28;20054;-72
2022/04/26 10:59:13;;;;;;;19.52;13.45;;;;;;;11.20;58.48;99045.25;5126366;28;20040;-72
2022/04/26 11:01:46;;;;;;;13.70;11.30;;;;;;;11.28;58.61;99043.91;5109406;28;20255;-72
2022/04/26 11:04:19;;;;;;;15.15;10.95;;;;;;;11.34;58.50;99047.03;5125728;28;20230;-72
2022/04/26 11:06:52;;;;;;;14.18;11.13;;;;;;;11.36;58.16;99042.47;5126461;28;20245;-71
2022/04/26 11:09:24;;;;;;;14.07;9.55;;;;;;;11.43;57.76;99041.16;5126269;28;20080;-71
2022/04/26 11:11:57;;;;;;;12.65;9.63;;;;;;;11.49;57.74;99038.09;5126621;28;20081;-70
2022/04/26 11:14:30;;;;;;;16.00;11.63;;;;;;;11.26;57.82;98993.59;5126207;28;20050;-71
2022/04/26 11:17:04;;;;;;;14.13;11.07;;;;;;;11.60;57.75;99026.81;5126385;28;20035;-70
2022/04/26 11:19:40;;;;;;;13.30;10.75;;;;;;;11.42;57.57;98990.81;5126194;28;20039;-71
2022/04/26 11:22:13;;;;;;;13.43;10.82;;;;;;;11.72;57.10;99027.81;5126417;28;20085;-72
2022/04/26 11:30:30;;;;;;;12.55;8.50;;;;;;;12.09;54.79;99028.94;5125970;28;20085;-72
2022/04/26 11:33:04;;;;;;;11.23;8.93;;;;;;;12.14;54.68;99024.16;5125970;28;20039;-71
2022/04/26 11:35:39;;;;;;;11.27;9.10;;;;;;;12.20;54.44;99023.78;5126057;28;20295;-69
2022/04/26 11:38:14;;;;;;;10.23;7.72;;;;;;;12.32;54.46;99017.66;5124842;28;20052;-71
2022/04/26 11:40:48;;;;;;;;;;;;;;;12.41;53.29;99018.81;5126572;28;20234;-71
2022/04/26 11:43:23;;;;;;;8.52;5.95;;;;;;;12.48;52.41;99013.00;5126220;28;19916;-72
2022/04/26 11:45:59;;;;;;;8.23;5.93;;;;;;;12.38;52.23;98972.06;5126025;28;20051;-70
2022/04/26 11:48:34;;;;;;;11.13;7.78;;;;;;;12.46;52.53;98971.53;5125095;28;20036;-69
2022/04/26 11:51:08;;;;;;;8.07;6.35;;;;;;;12.83;51.33;99001.72;5125943;28;20292;-70
2022/04/26 11:53:41;;;;;;;8.38;6.53;;;;;;;12.84;50.76;98998.09;5126677;28;20206;-69
2022/04/26 11:56:15;;;;;;;7.43;6.07;;;;;;;12.91;50.05;98998.53;5126356;28;20047;-72
2022/04/26 11:58:48;;;;;;;7.57;5.75;;;;;;;12.93;51.04;98991.28;5125600;28;20050;-70
2022/04/26 12:01:21;;;;;;;8.73;7.40;;;;;;;13.01;50.92;98986.28;5126177;28;20049;-70
2022/04/26 12:03:55;;;;;;;9.98;6.75;;;;;;;12.94;50.70;98945.97;5126419;28;20040;-70
2022/04/26 12:06:31;;;;;;;9.68;7.70;;;;;;;13.18;51.00;98977.94;5126089;28;20055;-70
2022/04/26 12:09:05;;;;;;;9.18;7.25;;;;;;;13.29;50.88;98974.50;5125928;28;20044;-72
2022/04/26 12:11:40;;;;;;;8.88;6.43;;;;;;;13.38;48.92;98968.53;5125518;28;20081;-72
2022/04/26 12:14:14;;;;;;;8.18;6.28;;;;;;;13.37;50.02;98969.47;5125559;28;20284;-72
2022/04/26 12:16:48;;;;;;;6.78;5.55;;;;;;;13.44;49.70;98965.44;5125767;28;20035;-70
2022/04/26 12:19:22;;;;;;;7.68;6.00;;;;;;;13.38;49.20;98916.13;5125587;28;20039;-70
2022/04/26 12:22:00;;;;;;;9.48;6.47;;;;;;;13.75;48.11;98959.56;5125329;28;20069;-70
2022/04/26 12:24:33;;;;;;;9.05;6.82;;;;;;;13.75;48.42;98954.22;5125338;28;20088;-70
2022/04/26 12:27:13;;;;;;;18.98;7.28;;;;;;;13.72;47.31;98942.97;5124709;28;20044;-70
2022/04/26 12:29:47;;;;;;;11.02;6.47;;;;;;;13.76;48.62;98945.28;5124503;28;20081;-71
2022/04/26 12:32:20;;;;;;;8.68;6.97;;;;;;;12.50;47.96;98760.38;5125614;28;20036;-71
2022/04/26 12:34:51;;;;;;;7.22;4.82;;;;;;;13.77;48.15;98943.47;5125166;28;20103;-71
2022/04/26 12:37:23;;;;;;;5.90;4.72;;;;;;;13.87;47.45;98940.97;5124067;28;20048;-71
2022/04/26 12:39:58;;;;;;;7.70;5.05;;;;;;;13.88;48.47;98900.91;5125337;28;20047;-72
2022/04/26 12:42:34;;;;;;;6.90;5.00;;;;;;;14.32;47.70;98926.81;5124835;28;20058;-71
2022/04/26 12:45:13;;;;;;;11.07;6.78;;;;;;;14.44;46.53;98917.84;5124528;28;20062;-72
2022/04/26 12:50:55;;;;;;;7.07;5.25;;;;;;;14.47;46.95;98911.44;5125282;28;20093;-72
2022/04/26 12:53:31;;;;;;;8.90;5.00;;;;;;;14.51;47.12;98870.22;5124663;28;20356;-72
2022/04/26 12:56:07;;;;;;;6.72;4.85;;;;;;;14.64;45.47;98856.84;5125735;28;20035;-72
2022/04/26 12:58:41;;;;;;;6.90;5.28;;;;;;;15.05;45.95;98902.38;5131034;28;20039;-72
2022/04/26 13:01:15;;;;;;;7.47;6.03;;;;;;;14.85;46.08;98895.13;5129551;28;20036;-72
2022/04/26 13:03:48;;;;;;;7.03;5.07;;;;;;;14.87;47.23;98895.84;5129431;28;20039;-72
2022/04/26 13:06:20;;;;;;;9.10;5.85;;;;;;;15.04;47.10;98897.16;5129068;28;20427;-71
2022/04/26 13:08:54;;;;;;;9.45;6.47;;;;;;;14.98;46.14;98892.31;5128717;28;20036;-71
2022/04/26 13:11:26;;;;;;;7.70;5.80;;;;;;;14.74;47.00;98842.63;5128030;28;20061;-71
2022/04/26 13:13:58;;;;;;;9.20;7.13;;;;;;;15.14;46.81;98894.59;5128232;28;20039;-71
2022/04/26 13:16:31;;;;;;;7.53;5.05;;;;;;;15.10;46.64;98890.50;5128793;28;20039;-72
2022/04/26 13:19:03;;;;;;;8.32;5.45;;;;;;;15.12;46.45;98886.72;5128735;28;20085;-71
2022/04/26 13:21:35;;;;;;;7.88;6.20;;;;;;;15.18;46.45;98885.38;5128419;27;20092;-71
2022/04/26 13:24:10;;;;;;;7.97;5.85;;;;;;;15.06;45.00;98890.75;5128437;27;20084;-71
2022/04/26 13:26:44;;;;;;;7.18;5.60;;;;;;;15.06;46.52;98887.22;5127582;28;20039;-71
2022/04/26 13:29:16;;;;;;;10.20;5.50;;;;;;;14.95;45.65;98889.91;5128391;28;20035;-71
2022/04/26 13:31:49;;;;;;;5.97;5.28;;;;;;;14.97;46.70;98879.97;5128185;28;20058;-71
2022/04/26 13:34:21;;;;;;;7.65;5.85;;;;;;;14.96;46.89;98879.13;5128262;28;20093;-71
2022/04/26 13:36:54;;;;;;;7.13;6.13;;;;;;;14.95;46.47;98876.56;5127882;28;20060;-71
2022/04/26 13:39:28;;;;;;;11.98;8.73;;;;;;;14.70;46.02;98883.03;5128097;28;20044;-71
2022/04/26 13:42:00;;;;;;;8.38;5.47;;;;;;;14.72;47.17;98870.41;5128108;28;20039;-71
2022/04/26 13:44:33;;;;;;;7.95;5.80;;;;;;;14.79;47.21;98866.28;5126959;28;20047;-71
2022/04/26 13:47:06;;;;;;;7.10;5.63;;;;;;;14.82;46.74;98866.03;5127939;28;20043;-71
2022/04/26 13:49:39;;;;;;;7.05;5.35;;;;;;;14.69;46.81;98863.50;5127885;28;20035;-70
2022/04/26 13:52:13;;;;;;;5.97;4.88;;;;;;;14.61;46.21;98865.06;5127838;28;20046;-70
2022/04/26 13:54:47;;;;;;;5.88;4.72;;;;;;;14.67;46.51;98868.09;5127686;28;20241;-70
2022/04/26 13:57:20;;;;;;;5.18;4.65;;;;;;;13.69;46.80;98699.06;5127715;28;20353;-71
2022/04/26 13:59:50;;;;;;;9.75;5.35;;;;;;;14.90;46.80;98863.59;5126796;28;20195;-70
2022/04/26 14:02:20;;;;;;;6.10;5.28;;;;;;;15.03;46.56;98848.28;5127949;28;20085;-70
2022/04/26 14:04:50;;;;;;;7.35;6.03;;;;;;;15.17;46.41;98862.34;5127375;28;20057;-70
2022/04/26 14:07:20;;;;;;;6.57;5.18;;;;;;;15.12;46.62;98848.50;5126901;28;20039;-70
2022/04/26 14:09:52;;;;;;;7.68;5.68;;;;;;;14.80;46.80;98803.94;5127312;28;20039;-70
2022/04/26 14:12:21;;;;;;;9.98;7.38;;;;;;;14.82;46.90;98812.69;5127200;28;20174;-70
2022/04/26 14:23:21;;;;;;;10.15;5.95;;;;;;;15.20;47.28;98843.41;5127531;28;20085;-70
2022/04/26 14:25:55;;;;;;;7.50;6.40;;;;;;;15.20;46.17;98854.06;5127118;28;20039;-70
2022/04/26 14:28:27;;;;;;;7.87;6.30;;;;;;;14.95;46.76;98812.53;5127138;28;20097;-70
2022/04/26 14:31:00;;;;;;;8.98;6.60;;;;;;;14.82;46.60;98753.16;5126898;28;20039;-70
2022/04/26 14:33:33;;;;;;;10.45;6.82;;;;;;;15.28;47.02;98841.78;5126816;28;20039;-70
2022/04/26 14:36:05;;;;;;;7.00;6.00;;;;;;;14.67;47.16;98750.75;5126865;28;20109;-71
2022/04/26 14:38:38;;;;;;;6.30;5.43;;;;;;;15.25;46.69;98847.38;5126303;28;20177;-69
2022/04/26 14:41:11;;;;;;;7.70;6.03;;;;;;;15.23;46.83;98846.66;5126289;28;20087;-70
2022/04/26 14:43:43;;;;;;;7.32;6.22;;;;;;;15.23;46.49;98852.00;5126381;28;20161;-70
2022/04/26 14:46:16;;;;;;;8.45;6.68;;;;;;;15.15;46.87;98850.94;5126006;28;20205;-70
2022/04/26 14:48:48;;;;;;;8.60;6.93;;;;;;;15.11;47.38;98855.66;5125826;28;20211;-70
2022/04/26 14:51:20;;;;;;;7.70;6.63;;;;;;;15.18;47.33;98848.00;5126835;28;20036;-70
2022/04/26 14:53:52;;;;;;;9.82;6.57;;;;;;;15.23;47.12;98853.81;5126703;28;20234;-70
2022/04/26 14:56:26;;;;;;;8.02;5.70;;;;;;;15.27;46.89;98845.44;5126586;28;20230;-69
2022/04/26 14:59:00;;;;;;;6.73;5.57;;;;;;;15.21;47.31;98850.44;5126628;28;20038;-69
2022/04/26 15:01:33;;;;;;;10.07;7.72;;;;;;;15.17;46.88;98843.66;5126630;28;20044;-70
2022/04/26 15:04:05;;;;;;;10.00;7.03;;;;;;;14.99;47.15;98836.16;5126643;27;20035;-69
2022/04/26 15:06:37;;;;;;;7.88;6.00;;;;;;;15.04;47.67;98833.97;5126389;28;20047;-69
2022/04/26 15:17:43;;;;;;;10.55;8.07;;;;;;;15.40;46.65;98832.75;5126347;28;20085;-70
2022/04/26 15:20:18;;;;;;;8.55;6.55;;;;;;;15.35;46.56;98837.63;5125768;28;20043;-70
2022/04/26 15:22:50;;;;;;;9.50;8.02;;;;;;;15.23;47.19;98835.97;5124807;28;20043;-70
2022/04/26 15:25:23;;;;;;;12.85;9.18;;;;;;;15.05;47.48;98825.00;5125959;28;20044;-70
2022/04/26 15:27:56;;;;;;;11.05;8.70;;;;;;;14.64;47.31;98783.00;5125254;28;20035;-70
2022/04/26 15:30:29;;;;;;;11.75;10.38;;;;;;;14.89;47.73;98837.03;5125487;28;20295;-69
2022/04/26 15:33:02;;;;;;;12.82;9.38;;;;;;;14.88;48.07;98835.34;5125327;28;20039;-71
2022/04/26 15:35:35;;;;;;;10.80;9.15;;;;;;;14.18;48.44;98732.47;5125929;28;20313;-69
2022/04/26 15:38:07;;;;;;;9.40;6.70;;;;;;;14.71;48.72;98831.38;5125509;28;20106;-70
2022/04/26 15:40:41;;;;;;;7.70;6.55;;;;;;;13.82;48.68;98725.56;5125060;28;20035;-70
2022/04/26 15:43:14;;;;;;;8.23;6.57;;;;;;;14.56;49.05;98827.19;5125660;28;20039;-71
2022/04/26 15:45:47;;;;;;;13.37;7.53;;;;;;;14.53;49.11;98840.78;5125743;28;20089;-70
2022/04/26 15:48:19;;;;;;;9.15;7.03;;;;;;;14.19;49.00;98787.47;5125672;28;20042;-70
2022/04/26 15:50:52;;;;;;;8.60;6.93;;;;;;;13.65;48.91;98728.69;5124892;28;20081;-71
2022/04/26 15:53:24;;;;;;;9.38;8.13;;;;;;;14.48;48.96;98873.13;5125027;28;20337;-70
2022/04/26 15:55:56;;;;;;;10.50;8.55;;;;;;;14.48;48.87;98832.28;5125875;28;20080;-70
2022/04/26 15:58:30;;;;;;;8.73;7.20;;;;;;;14.21;49.53;98801.53;5124842;28;20061;-70
2022/04/26 16:01:02;;;;;;;9.75;8.68;;;;;;;14.50;49.46;98838.34;5124905;28;20036;-70